Urb San Vicente, Puerto Rico
Current Conditions -  °F | °C
As of 9:56 PM on Friday 21 Nov 2014 (Local Time) from TJSJ Reporting Station
Light Rain Light Rain  
Wind Chill: 77°   Ceiling: 9000
Heat Index: 78°   Visibility: 10mi
Dew Point: 75°   Wind: 6mph
Humidity: 94%   Direction: 110°ESE
Pressure: 30.04"   Gusts: NA
Location:  18.4061°N, 66.3012°W
Report Text: TJSJ 220156Z 11005KT 10SM -RA SCT027 SCT048 OVC090 25/24 A3004 RMK AO2 RAE10B40 SLP172 P0003 T02500239
Loading
Personal Weather Stations






























Interactive Weather Map New forecast layout! Learn more

10-Day Weather Forecast

Advertisements
Track Severe Weather on mobile